KAWO/AWO METAR and TAF weather

Enter ICAO airport designator
Station Type Date Time Source
KAWO METAR 2021/04/18 02:56 UTC NOAA

KAWO 180256Z AUTO 29004KT 10SM CLR 20/05 A3014 RMK AO2 SLP208 T02000050 55006


Station Type Date Time Source
KAWO Decoded METAR 2021/04/18 02:56 UTC NOAA

Arlington Municipal, WA, United States (KAWO) 48-10N 122-10W
Apr 17, 2021 - 10:56 PM EDT / 2021.04.18 0256 UTC
Wind: from the WNW (290 degrees) at 5 MPH (4 KT):0
Visibility: 10 mile(s):0
Sky conditions: clear
Temperature: 68.0 F (20.0 C)
Dew Point: 41.0 F (5.0 C)
Relative Humidity: 37%
Pressure (altimeter): 30.14 in. Hg (1020 hPa)
Pressure tendency: 0.02 inches (0.6 hPa) lower than three hours ago
ob: KAWO 180256Z AUTO 29004KT 10SM CLR 20/05 A3014 RMK AO2 SLP208 T02000050 55006
cycle: 3

Station Type Date Time Source
KAWO TAF UTC NOAA

Error!

Example: see airport list